createdAt,value
2023-02-14T00:02:02.180Z,100531.22
2023-02-14T00:04:30.811Z,100528.27
2023-02-14T00:06:59.024Z,100529.27
2023-02-14T00:09:27.233Z,100525.63
2023-02-14T00:11:55.584Z,100523.33
2023-02-14T00:14:43.022Z,100512.88
2023-02-14T00:17:11.273Z,100510.94
2023-02-14T00:19:39.615Z,100507.11
2023-02-14T00:22:07.739Z,100502.46
2023-02-14T00:24:37.860Z,100501.09
2023-02-14T00:27:06.357Z,100495.71
2023-02-14T00:29:35.250Z,100490.64
2023-02-14T00:32:03.988Z,100485.11
2023-02-14T00:34:33.649Z,100479.26
2023-02-14T00:37:03.319Z,100476.16
2023-02-14T00:39:32.010Z,100471.48
2023-02-14T00:42:00.047Z,100465.95
2023-02-14T00:44:28.317Z,100464.88
2023-02-14T00:46:56.471Z,100461.05
2023-02-14T00:49:24.820Z,100454.27
2023-02-14T00:51:53.240Z,100450.45
2023-02-14T00:54:21.822Z,100445.95
2023-02-14T00:56:50.165Z,100440.77
2023-02-14T00:59:19.893Z,100431.08
2023-02-14T01:01:48.367Z,100426.04
2023-02-14T01:04:16.432Z,100418.39
2023-02-14T01:06:45.866Z,100417.86
2023-02-14T01:09:14.827Z,100419.23
2023-02-14T01:11:44.090Z,100412.48
2023-02-14T01:14:12.409Z,100413.35
2023-02-14T01:16:44.805Z,100410.82
2023-02-14T01:19:13.380Z,100409.13
2023-02-14T01:21:44.922Z,100401.90
2023-02-14T01:24:13.409Z,100398.18
2023-02-14T01:26:43.749Z,100394.09
2023-02-14T01:29:12.214Z,100384.77
2023-02-14T01:31:40.814Z,100386.38
2023-02-14T01:34:09.082Z,100388.30
2023-02-14T01:36:38.829Z,100379.85
2023-02-14T01:39:09.314Z,100373.13
2023-02-14T01:41:37.998Z,100369.27
2023-02-14T01:44:15.616Z,100365.95
2023-02-14T01:46:44.902Z,100364.58
2023-02-14T01:49:14.842Z,100362.67
2023-02-14T01:51:51.403Z,100356.61
2023-02-14T01:54:22.630Z,100356.25
2023-02-14T01:56:52.311Z,100350.70
2023-02-14T01:59:22.861Z,100350.55
2023-02-14T02:01:51.231Z,100349.35
2023-02-14T02:04:22.949Z,100347.66
2023-02-14T02:07:03.032Z,100341.31
2023-02-14T02:09:33.295Z,100339.83
2023-02-14T02:12:02.403Z,100332.27
2023-02-14T02:14:31.796Z,100330.43
2023-02-14T02:17:28.633Z,100328.72
2023-02-14T02:20:19.356Z,100317.73
2023-02-14T02:23:39.374Z,100307.64
2023-02-14T02:26:16.629Z,100300.29
2023-02-14T02:29:15.913Z,100298.59
2023-02-14T02:32:02.465Z,100293.29
2023-02-14T02:35:05.710Z,100296.69
2023-02-14T02:38:08.225Z,100297.66
2023-02-14T02:41:06.279Z,100297.80
2023-02-14T02:43:53.937Z,100307.41
2023-02-14T02:46:44.576Z,100303.27
2023-02-14T02:49:45.040Z,100301.64
2023-02-14T02:52:41.335Z,100298.27
2023-02-14T02:55:20.334Z,100292.27
2023-02-14T02:57:48.575Z,100291.31
2023-02-14T03:00:19.209Z,100288.34
2023-02-14T03:03:08.374Z,100284.96
2023-02-14T03:05:37.439Z,100283.42
2023-02-14T03:08:05.793Z,100283.95
2023-02-14T03:10:36.584Z,100286.14
2023-02-14T03:13:19.522Z,100283.88
2023-02-14T03:16:06.965Z,100280.55
2023-02-14T03:18:57.939Z,100274.52
2023-02-14T03:21:52.544Z,100273.08
2023-02-14T03:24:25.329Z,100276.17
2023-02-14T03:26:59.655Z,100277.11
2023-02-14T03:29:54.014Z,100273.70
2023-02-14T03:32:31.726Z,100270.10
2023-02-14T03:35:25.749Z,100265.27
2023-02-14T03:38:03.629Z,100266.98
2023-02-14T03:40:43.672Z,100266.10
2023-02-14T03:43:15.947Z,100263.03
2023-02-14T03:46:09.032Z,100261.94
2023-02-14T03:48:37.574Z,100256.70
2023-02-14T03:51:06.106Z,100252.88
2023-02-14T03:53:35.720Z,100249.24
2023-02-14T03:56:12.651Z,100253.77
2023-02-14T03:58:43.993Z,100255.05
2023-02-14T04:01:23.470Z,100259.41
2023-02-14T04:03:52.938Z,100257.87
2023-02-14T04:06:23.077Z,100256.31
2023-02-14T04:08:51.854Z,100255.45
2023-02-14T04:11:24.084Z,100253.23
2023-02-14T04:13:53.127Z,100251.48
2023-02-14T04:16:21.304Z,100256.86
2023-02-14T04:19:08.307Z,100260.54
2023-02-14T04:21:36.712Z,100261.08
2023-02-14T04:24:05.981Z,100265.56
2023-02-14T04:26:34.978Z,100264.71
2023-02-14T04:29:03.997Z,100270.27
2023-02-14T04:31:33.207Z,100267.52
2023-02-14T04:34:02.953Z,100272.73
2023-02-14T04:36:31.708Z,100271.23
2023-02-14T04:38:59.872Z,100271.81
2023-02-14T04:41:28.231Z,100270.66
2023-02-14T04:43:56.724Z,100274.98
2023-02-14T04:46:24.823Z,100280.66
2023-02-14T04:48:53.261Z,100283.70
2023-02-14T04:51:21.532Z,100280.48
2023-02-14T04:53:49.866Z,100282.66
2023-02-14T04:56:18.051Z,100283.09
2023-02-14T04:58:46.268Z,100284.74
2023-02-14T05:01:14.618Z,100289.52
2023-02-14T05:03:42.831Z,100291.21
2023-02-14T05:06:11.003Z,100291.85
2023-02-14T05:08:39.280Z,100294.74
2023-02-14T05:11:08.061Z,100298.34
2023-02-14T05:13:36.333Z,100297.97
2023-02-14T05:16:05.679Z,100296.68
2023-02-14T05:18:34.011Z,100296.27
2023-02-14T05:21:02.314Z,100300.14
2023-02-14T05:23:31.078Z,100299.91
2023-02-14T05:25:59.254Z,100300.89
2023-02-14T05:28:27.535Z,100304.30
2023-02-14T05:30:57.252Z,100305.09
2023-02-14T05:33:26.342Z,100307.80
2023-02-14T05:35:54.611Z,100308.48
2023-02-14T05:38:24.423Z,100305.48
2023-02-14T05:40:52.632Z,100305.92
2023-02-14T05:43:21.391Z,100303.95
2023-02-14T05:45:51.191Z,100298.80
2023-02-14T05:48:19.809Z,100296.25
2023-02-14T05:50:47.972Z,100290.80
2023-02-14T05:53:16.199Z,100291.21
2023-02-14T05:55:44.946Z,100288.66
2023-02-14T05:58:13.793Z,100284.74
2023-02-14T06:00:42.945Z,100286.35
2023-02-14T06:03:10.997Z,100287.59
2023-02-14T06:05:40.354Z,100286.98
2023-02-14T06:08:09.084Z,100286.71
2023-02-14T06:10:37.375Z,100288.66
2023-02-14T06:13:10.762Z,100287.71
2023-02-14T06:15:39.135Z,100294.65
2023-02-14T06:18:07.420Z,100291.59
2023-02-14T06:20:36.254Z,100294.25
2023-02-14T06:23:04.967Z,100299.71
2023-02-14T06:25:33.259Z,100304.38
2023-02-14T06:28:01.299Z,100298.71
2023-02-14T06:30:30.133Z,100307.11
2023-02-14T06:32:58.304Z,100303.73
2023-02-14T06:35:26.478Z,100300.79
2023-02-14T06:37:54.988Z,100302.22
2023-02-14T06:40:24.154Z,100305.27
2023-02-14T06:42:52.286Z,100301.58
2023-02-14T06:45:20.737Z,100306.58
2023-02-14T06:47:48.756Z,100311.20
2023-02-14T06:50:17.081Z,100311.34
2023-02-14T06:52:45.338Z,100315.32
2023-02-14T06:55:14.127Z,100307.48
2023-02-14T06:57:42.315Z,100305.97
2023-02-14T07:00:11.707Z,100304.44
2023-02-14T07:02:40.136Z,100308.42
2023-02-14T07:05:08.908Z,100313.04
2023-02-14T07:07:37.154Z,100311.98
2023-02-14T07:10:06.349Z,100317.84
2023-02-14T07:12:35.066Z,100314.28
2023-02-14T07:15:05.185Z,100314.05
2023-02-14T07:17:34.072Z,100317.61
2023-02-14T07:20:02.659Z,100318.16
2023-02-14T07:22:32.064Z,100319.71
2023-02-14T07:25:00.311Z,100318.52
2023-02-14T07:27:28.350Z,100318.77
2023-02-14T07:29:57.354Z,100316.10
2023-02-14T07:32:27.363Z,100318.58
2023-02-14T07:34:55.653Z,100311.12
2023-02-14T07:37:24.078Z,100313.77
2023-02-14T07:39:52.755Z,100310.38
2023-02-14T07:42:21.013Z,100316.52
2023-02-14T07:44:49.897Z,100318.40
2023-02-14T07:47:17.970Z,100319.70
2023-02-14T07:49:46.713Z,100317.59
2023-02-14T07:52:14.998Z,100320.50
2023-02-14T07:54:45.064Z,100319.30
2023-02-14T07:57:13.648Z,100318.92
2023-02-14T07:59:41.934Z,100318.58
2023-02-14T08:02:11.546Z,100320.36
2023-02-14T08:04:39.640Z,100317.58
2023-02-14T08:07:08.496Z,100324.95
2023-02-14T08:09:36.668Z,100325.09
2023-02-14T08:12:24.661Z,100327.91
2023-02-14T08:14:52.892Z,100321.93
2023-02-14T08:17:22.243Z,100321.16
2023-02-14T08:19:50.867Z,100322.20
2023-02-14T08:22:19.511Z,100323.62
2023-02-14T08:24:49.086Z,100322.27
2023-02-14T08:27:19.736Z,100323.94
2023-02-14T08:29:48.035Z,100321.77
2023-02-14T08:32:16.317Z,100325.59
2023-02-14T08:34:44.726Z,100324.75
2023-02-14T08:37:13.410Z,100329.83
2023-02-14T08:39:41.589Z,100331.02
2023-02-14T08:42:10.697Z,100331.71
2023-02-14T08:44:39.410Z,100331.15
2023-02-14T08:47:07.699Z,100331.89
2023-02-14T08:49:36.228Z,100333.92
2023-02-14T08:52:05.780Z,100335.41
2023-02-14T08:54:34.136Z,100330.04
2023-02-14T08:57:03.549Z,100327.89
2023-02-14T08:59:31.725Z,100328.57
2023-02-14T09:02:02.661Z,100331.70
2023-02-14T09:04:35.461Z,100338.45
2023-02-14T09:07:04.820Z,100338.78
2023-02-14T09:09:33.122Z,100339.05
2023-02-14T09:12:06.594Z,100343.10
2023-02-14T09:14:44.059Z,100346.06
2023-02-14T09:17:13.220Z,100348.95
2023-02-14T09:19:42.160Z,100347.09
2023-02-14T09:22:10.806Z,100349.39
2023-02-14T09:24:42.239Z,100346.20
2023-02-14T09:27:10.880Z,100345.56
2023-02-14T09:29:39.185Z,100346.47
2023-02-14T09:32:07.554Z,100346.13
2023-02-14T09:34:36.762Z,100343.78
2023-02-14T09:37:06.421Z,100332.54
2023-02-14T09:39:36.694Z,100331.69
2023-02-14T09:42:07.653Z,100334.59
2023-02-14T09:44:47.594Z,100328.75
2023-02-14T09:47:19.554Z,100320.31
2023-02-14T09:49:47.928Z,100318.13
2023-02-14T09:52:16.688Z,100315.20
2023-02-14T09:54:48.249Z,100319.42
2023-02-14T09:57:31.910Z,100316.88
2023-02-14T10:00:25.370Z,100315.73
2023-02-14T10:03:30.873Z,100310.85
2023-02-14T10:06:05.912Z,100314.11
2023-02-14T10:08:58.081Z,100309.86
2023-02-14T10:11:26.497Z,100310.92
2023-02-14T10:14:05.539Z,100311.81
2023-02-14T10:16:40.323Z,100314.00
2023-02-14T10:19:19.976Z,100310.20
2023-02-14T10:21:52.867Z,100308.84
2023-02-14T10:24:45.823Z,100308.29
2023-02-14T10:27:33.143Z,100308.02
2023-02-14T10:30:04.846Z,100306.11
2023-02-14T10:32:47.896Z,100306.83
2023-02-14T10:35:23.839Z,100304.14
2023-02-14T10:38:17.839Z,100293.98
2023-02-14T10:41:04.072Z,100294.68
2023-02-14T10:43:53.404Z,100289.90
2023-02-14T10:46:37.312Z,100293.14
2023-02-14T10:49:12.947Z,100295.27
2023-02-14T10:51:50.653Z,100294.26
2023-02-14T10:54:26.342Z,100297.89
2023-02-14T10:57:02.020Z,100292.56
2023-02-14T10:59:45.438Z,100295.65
2023-02-14T11:02:14.755Z,100295.98
2023-02-14T11:04:43.256Z,100293.08
2023-02-14T11:07:15.424Z,100294.61
2023-02-14T11:09:47.676Z,100296.50
2023-02-14T11:12:41.143Z,100294.85
2023-02-14T11:15:15.672Z,100296.84
2023-02-14T11:17:43.943Z,100295.78
2023-02-14T11:20:24.593Z,100296.30
2023-02-14T11:22:53.341Z,100293.64
2023-02-14T11:25:23.272Z,100293.22
2023-02-14T11:28:08.360Z,100295.55
2023-02-14T11:30:41.599Z,100295.24
2023-02-14T11:33:12.757Z,100296.23
2023-02-14T11:35:41.554Z,100293.48
2023-02-14T11:38:35.950Z,100293.33
2023-02-14T11:41:04.856Z,100294.91
2023-02-14T11:43:34.694Z,100292.61
2023-02-14T11:46:17.214Z,100286.88
2023-02-14T11:49:02.941Z,100289.98
2023-02-14T11:51:40.337Z,100291.46
2023-02-14T11:54:13.538Z,100295.00
2023-02-14T11:56:54.115Z,100292.69
2023-02-14T11:59:27.040Z,100294.02
2023-02-14T12:01:57.951Z,100292.30
2023-02-14T12:04:46.954Z,100293.50
2023-02-14T12:07:37.447Z,100294.13
2023-02-14T12:10:09.456Z,100294.34
2023-02-14T12:12:37.707Z,100293.51
2023-02-14T12:15:23.490Z,100289.29
2023-02-14T12:18:21.141Z,100292.96
2023-02-14T12:21:02.096Z,100291.20
2023-02-14T12:23:56.314Z,100294.52
2023-02-14T12:26:36.557Z,100295.17
2023-02-14T12:29:35.482Z,100293.71
2023-02-14T12:32:21.672Z,100291.71
2023-02-14T12:34:50.124Z,100292.86
2023-02-14T12:37:40.420Z,100298.42
2023-02-14T12:40:28.254Z,100295.63
2023-02-14T12:43:02.869Z,100295.91
2023-02-14T12:46:09.600Z,100294.25
2023-02-14T12:48:59.948Z,100297.40
2023-02-14T12:51:30.894Z,100300.29
2023-02-14T12:54:15.655Z,100306.73
2023-02-14T12:57:05.115Z,100312.95
2023-02-14T12:59:59.622Z,100309.75
2023-02-14T13:02:50.163Z,100312.64
2023-02-14T13:05:45.863Z,100311.66
2023-02-14T13:08:39.923Z,100313.70
2023-02-14T13:11:23.558Z,100314.63
2023-02-14T13:14:04.670Z,100320.85
2023-02-14T13:16:59.992Z,100319.91
2023-02-14T13:19:37.354Z,100327.05
2023-02-14T13:22:05.721Z,100327.17
2023-02-14T13:24:46.528Z,100324.15
2023-02-14T13:27:22.909Z,100327.14
2023-02-14T13:30:26.096Z,100327.24
2023-02-14T13:32:54.232Z,100322.26
2023-02-14T13:35:22.461Z,100326.93
2023-02-14T13:38:14.572Z,100334.21
2023-02-14T13:40:43.862Z,100326.57
2023-02-14T13:43:12.124Z,100330.17
2023-02-14T13:45:41.255Z,100330.64
2023-02-14T13:48:18.660Z,100332.92
2023-02-14T13:51:04.484Z,100333.55
2023-02-14T13:53:35.887Z,100336.80
2023-02-14T13:56:05.977Z,100337.56
2023-02-14T13:58:35.358Z,100339.20
2023-02-14T14:01:52.988Z,100340.67
2023-02-14T14:04:30.585Z,100346.14
2023-02-14T14:07:02.694Z,100352.27
2023-02-14T14:09:43.234Z,100359.76
2023-02-14T14:12:27.217Z,100360.86
2023-02-14T14:15:05.202Z,100360.61
2023-02-14T14:17:36.310Z,100363.38
2023-02-14T14:20:27.764Z,100361.67
2023-02-14T14:22:57.572Z,100367.84
2023-02-14T14:25:39.390Z,100370.52
2023-02-14T14:28:20.784Z,100370.50
2023-02-14T14:30:49.532Z,100358.98
2023-02-14T14:33:29.264Z,100366.02
2023-02-14T14:36:06.078Z,100373.59
2023-02-14T14:38:45.779Z,100377.02
2023-02-14T14:41:13.985Z,100374.88
2023-02-14T14:43:42.234Z,100377.45
2023-02-14T14:46:14.656Z,100382.78
2023-02-14T14:48:47.345Z,100385.56
2023-02-14T14:51:34.826Z,100389.31
2023-02-14T14:54:04.984Z,100392.06
2023-02-14T14:56:37.774Z,100387.16
2023-02-14T14:59:26.103Z,100399.04
2023-02-14T15:01:54.663Z,100405.86
2023-02-14T15:04:28.017Z,100410.25
2023-02-14T15:06:57.668Z,100414.29
2023-02-14T15:09:31.715Z,100414.73
2023-02-14T15:12:20.332Z,100419.52
2023-02-14T15:14:54.672Z,100418.92
2023-02-14T15:17:31.950Z,100416.41
2023-02-14T15:20:08.421Z,100421.55
2023-02-14T15:22:42.121Z,100427.91
2023-02-14T15:25:12.169Z,100428.55
2023-02-14T15:27:40.935Z,100434.54
2023-02-14T15:30:34.842Z,100431.80
2023-02-14T15:33:04.577Z,100434.98
2023-02-14T15:35:34.324Z,100438.50
2023-02-14T15:38:05.169Z,100443.11
2023-02-14T15:40:34.563Z,100446.45
2023-02-14T15:43:29.768Z,100457.48
2023-02-14T15:46:20.414Z,100458.58
2023-02-14T15:48:49.211Z,100463.86
2023-02-14T15:51:28.815Z,100464.55
2023-02-14T15:54:04.124Z,100460.93
2023-02-14T15:56:47.003Z,100467.36
2023-02-14T15:59:23.571Z,100463.52
2023-02-14T16:01:55.184Z,100462.48
2023-02-14T16:04:27.860Z,100462.80
2023-02-14T16:07:24.065Z,100469.83
2023-02-14T16:10:24.528Z,100462.02
2023-02-14T16:12:59.343Z,100467.83
2023-02-14T16:15:30.258Z,100467.60
2023-02-14T16:17:59.128Z,100473.77
2023-02-14T16:20:51.404Z,100480.45
2023-02-14T16:23:25.124Z,100479.23
2023-02-14T16:25:53.917Z,100482.84
2023-02-14T16:28:22.142Z,100483.02
2023-02-14T16:30:55.537Z,100486.77
2023-02-14T16:33:30.938Z,100493.34
2023-02-14T16:36:06.553Z,100496.12
2023-02-14T16:38:41.621Z,100495.83
2023-02-14T16:41:23.211Z,100502.78
2023-02-14T16:43:51.913Z,100502.97
2023-02-14T16:46:22.036Z,100511.02
2023-02-14T16:48:53.760Z,100510.43
2023-02-14T16:51:23.809Z,100508.52
2023-02-14T16:53:52.181Z,100512.48
2023-02-14T16:56:23.197Z,100519.06
2023-02-14T16:58:52.241Z,100523.18
2023-02-14T17:01:20.731Z,100534.25
2023-02-14T17:03:49.311Z,100538.17
2023-02-14T17:06:20.326Z,100541.02
2023-02-14T17:08:48.795Z,100539.18
2023-02-14T17:11:17.686Z,100539.58
2023-02-14T17:13:45.767Z,100544.45
2023-02-14T17:16:16.727Z,100548.49
2023-02-14T17:18:47.772Z,100554.11
2023-02-14T17:21:16.148Z,100555.36
2023-02-14T17:23:44.438Z,100562.80
2023-02-14T17:26:18.015Z,100566.25
2023-02-14T17:28:46.699Z,100567.08
2023-02-14T17:31:15.187Z,100568.42
2023-02-14T17:33:43.765Z,100576.62
2023-02-14T17:36:13.476Z,100578.39
2023-02-14T17:38:45.304Z,100572.52
2023-02-14T17:41:17.090Z,100576.59
2023-02-14T17:43:45.788Z,100580.09
2023-02-14T17:46:18.806Z,100583.23
2023-02-14T17:48:48.364Z,100584.63
2023-02-14T17:51:17.183Z,100588.42
2023-02-14T17:53:45.459Z,100590.34
2023-02-14T17:56:18.196Z,100587.92
2023-02-14T17:58:51.402Z,100588.44
2023-02-14T18:01:25.782Z,100590.03
2023-02-14T18:03:54.555Z,100596.30
2023-02-14T18:06:23.110Z,100593.55
2023-02-14T18:08:57.140Z,100601.22
2023-02-14T18:11:27.058Z,100596.70
2023-02-14T18:13:56.140Z,100595.70
2023-02-14T18:16:25.136Z,100596.02
2023-02-14T18:18:55.042Z,100603.83
2023-02-14T18:21:24.732Z,100609.20
2023-02-14T18:23:54.014Z,100610.44
2023-02-14T18:26:22.158Z,100611.84
2023-02-14T18:28:51.309Z,100612.05
2023-02-14T18:31:20.633Z,100613.51
2023-02-14T18:33:50.150Z,100613.23
2023-02-14T18:36:20.860Z,100614.91
2023-02-14T18:38:50.417Z,100621.67
2023-02-14T18:41:19.533Z,100623.93
2023-02-14T18:43:49.520Z,100625.47
2023-02-14T18:46:19.928Z,100632.48
2023-02-14T18:48:48.174Z,100633.27
2023-02-14T18:51:26.479Z,100633.88
2023-02-14T18:53:56.338Z,100635.88
2023-02-14T18:56:27.844Z,100637.52
2023-02-14T18:58:59.438Z,100642.30
2023-02-14T19:01:30.605Z,100642.40
2023-02-14T19:03:59.976Z,100644.73
2023-02-14T19:06:29.808Z,100643.69
2023-02-14T19:08:58.460Z,100646.75
2023-02-14T19:11:31.857Z,100646.75
2023-02-14T19:14:01.413Z,100650.14
2023-02-14T19:16:33.890Z,100655.21
2023-02-14T19:19:02.818Z,100659.04
2023-02-14T19:21:34.373Z,100654.45
2023-02-14T19:24:16.808Z,100655.08
2023-02-14T19:26:45.089Z,100658.45
2023-02-14T19:29:16.985Z,100659.41
2023-02-14T19:31:48.640Z,100665.73
2023-02-14T19:34:17.766Z,100666.68
2023-02-14T19:36:46.289Z,100670.41
2023-02-14T19:39:17.550Z,100668.24
2023-02-14T19:41:46.770Z,100671.44
2023-02-14T19:44:15.339Z,100674.63
2023-02-14T19:46:45.014Z,100679.50
2023-02-14T19:49:19.128Z,100681.58
2023-02-14T19:51:48.351Z,100682.20
2023-02-14T19:54:22.186Z,100681.59
2023-02-14T19:56:51.340Z,100681.60
2023-02-14T19:59:22.068Z,100685.95
2023-02-14T20:01:52.674Z,100688.52
2023-02-14T20:04:25.412Z,100686.45
2023-02-14T20:06:54.942Z,100690.77
2023-02-14T20:09:23.674Z,100697.65
2023-02-14T20:11:57.083Z,100700.00
2023-02-14T20:14:27.654Z,100698.98
2023-02-14T20:16:59.097Z,100696.74
2023-02-14T20:19:29.551Z,100693.15
2023-02-14T20:21:57.755Z,100697.38
2023-02-14T20:24:30.842Z,100704.08
2023-02-14T20:27:00.564Z,100702.73
2023-02-14T20:29:29.139Z,100704.92
2023-02-14T20:31:59.903Z,100704.87
2023-02-14T20:34:28.768Z,100706.27
2023-02-14T20:36:59.696Z,100707.24
2023-02-14T20:39:30.601Z,100713.56
2023-02-14T20:41:59.731Z,100714.48
2023-02-14T20:44:28.637Z,100713.52
2023-02-14T20:46:57.349Z,100717.96
2023-02-14T20:49:26.618Z,100718.85
2023-02-14T20:51:55.098Z,100719.59
2023-02-14T20:54:24.805Z,100725.61
2023-02-14T20:56:52.963Z,100729.34
2023-02-14T20:59:27.815Z,100733.08
2023-02-14T21:01:57.109Z,100732.92
2023-02-14T21:04:26.618Z,100736.52
2023-02-14T21:06:54.712Z,100739.89
2023-02-14T21:09:26.353Z,100739.50
2023-02-14T21:11:54.831Z,100740.94
2023-02-14T21:14:23.141Z,100741.86
2023-02-14T21:16:54.881Z,100744.70
2023-02-14T21:19:23.367Z,100747.52
2023-02-14T21:21:52.031Z,100754.38
2023-02-14T21:24:20.719Z,100752.92
2023-02-14T21:26:49.410Z,100756.80
2023-02-14T21:29:17.998Z,100761.90
2023-02-14T21:31:46.499Z,100766.02
2023-02-14T21:34:15.672Z,100764.20
2023-02-14T21:36:43.848Z,100768.11
2023-02-14T21:39:12.564Z,100770.48
2023-02-14T21:41:40.918Z,100776.87
2023-02-14T21:44:09.236Z,100783.77
2023-02-14T21:46:39.131Z,100787.17
2023-02-14T21:49:26.606Z,100791.15
2023-02-14T21:51:55.017Z,100787.15
2023-02-14T21:54:25.254Z,100788.33
2023-02-14T21:56:53.421Z,100788.36
2023-02-14T21:59:24.345Z,100789.02
2023-02-14T22:01:52.510Z,100785.67
2023-02-14T22:04:20.910Z,100793.52
2023-02-14T22:06:50.104Z,100801.34
2023-02-14T22:09:24.146Z,100802.19
2023-02-14T22:11:53.130Z,100804.27
2023-02-14T22:14:21.157Z,100800.66
2023-02-14T22:16:49.365Z,100799.57
2023-02-14T22:19:17.839Z,100801.41
2023-02-14T22:21:46.046Z,100799.27
2023-02-14T22:24:14.497Z,100806.59
2023-02-14T22:26:43.859Z,100803.72
2023-02-14T22:29:13.805Z,100801.26
2023-02-14T22:31:42.715Z,100807.45
2023-02-14T22:34:12.831Z,100807.70
2023-02-14T22:36:41.943Z,100806.23
2023-02-14T22:39:13.474Z,100811.33
2023-02-14T22:41:45.636Z,100816.31
2023-02-14T22:44:14.339Z,100817.49
2023-02-14T22:46:44.065Z,100819.36
2023-02-14T22:49:12.485Z,100820.64
2023-02-14T22:51:41.627Z,100821.30
2023-02-14T22:54:14.837Z,100823.39
2023-02-14T22:56:44.578Z,100821.67
2023-02-14T22:59:23.746Z,100821.10
2023-02-14T23:01:52.484Z,100828.98
2023-02-14T23:04:22.078Z,100834.77
2023-02-14T23:06:51.256Z,100838.62
2023-02-14T23:09:19.933Z,100834.27
2023-02-14T23:11:48.207Z,100829.89
2023-02-14T23:14:36.448Z,100828.15
2023-02-14T23:17:23.779Z,100825.05
2023-02-14T23:20:10.689Z,100822.98
2023-02-14T23:22:40.420Z,100826.80
2023-02-14T23:25:10.346Z,100831.61
2023-02-14T23:27:44.130Z,100832.13
2023-02-14T23:30:15.789Z,100838.39
2023-02-14T23:32:44.060Z,100835.19
2023-02-14T23:35:12.150Z,100838.32
2023-02-14T23:37:40.616Z,100849.40
2023-02-14T23:40:10.091Z,100844.52
2023-02-14T23:42:41.267Z,100850.17
2023-02-14T23:45:29.238Z,100851.13
2023-02-14T23:48:05.134Z,100855.27
2023-02-14T23:50:33.488Z,100860.22
2023-02-14T23:53:02.366Z,100862.72
2023-02-14T23:55:31.727Z,100861.72
2023-02-14T23:58:01.345Z,100868.66
